sensor_id;sensor_type;location;lat;lon;timestamp;P1;durP1;ratioP1;P2;durP2;ratioP2
51618;SDS011;38518;53.164;5.430;2024-03-22T00:01:48;76.18;;;44.05;;
51618;SDS011;38518;53.164;5.430;2024-03-22T00:04:15;74.68;;;44.38;;
51618;SDS011;38518;53.164;5.430;2024-03-22T00:06:42;79.57;;;44.80;;
51618;SDS011;38518;53.164;5.430;2024-03-22T00:09:09;73.47;;;44.25;;
51618;SDS011;38518;53.164;5.430;2024-03-22T00:11:35;72.97;;;35.40;;
51618;SDS011;38518;53.164;5.430;2024-03-22T00:14:01;77.65;;;45.28;;
51618;SDS011;38518;53.164;5.430;2024-03-22T00:16:27;78.68;;;45.95;;
51618;SDS011;38518;53.164;5.430;2024-03-22T00:18:53;73.10;;;43.15;;
51618;SDS011;38518;53.164;5.430;2024-03-22T00:21:19;79.35;;;47.22;;
51618;SDS011;38518;53.164;5.430;2024-03-22T00:23:46;74.85;;;42.47;;
51618;SDS011;38518;53.164;5.430;2024-03-22T00:26:12;75.65;;;43.95;;
51618;SDS011;38518;53.164;5.430;2024-03-22T00:28:37;70.75;;;42.67;;
51618;SDS011;38518;53.164;5.430;2024-03-22T00:31:03;73.82;;;42.92;;
51618;SDS011;38518;53.164;5.430;2024-03-22T00:33:29;73.90;;;45.10;;
51618;SDS011;38518;53.164;5.430;2024-03-22T00:35:55;76.93;;;44.85;;
51618;SDS011;38518;53.164;5.430;2024-03-22T00:38:20;78.00;;;44.35;;
51618;SDS011;38518;53.164;5.430;2024-03-22T00:40:46;82.10;;;47.42;;
51618;SDS011;38518;53.164;5.430;2024-03-22T00:43:12;81.45;;;46.10;;
51618;SDS011;38518;53.164;5.430;2024-03-22T00:45:38;82.72;;;47.20;;
51618;SDS011;38518;53.164;5.430;2024-03-22T00:48:04;74.90;;;45.85;;
51618;SDS011;38518;53.164;5.430;2024-03-22T00:50:30;82.68;;;47.45;;
51618;SDS011;38518;53.164;5.430;2024-03-22T00:52:56;77.78;;;44.95;;
51618;SDS011;38518;53.164;5.430;2024-03-22T00:55:22;77.55;;;44.40;;
51618;SDS011;38518;53.164;5.430;2024-03-22T00:57:48;80.10;;;47.92;;
51618;SDS011;38518;53.164;5.430;2024-03-22T01:00:15;81.05;;;46.17;;
51618;SDS011;38518;53.164;5.430;2024-03-22T01:02:41;71.22;;;44.05;;
51618;SDS011;38518;53.164;5.430;2024-03-22T01:05:07;78.93;;;42.50;;
51618;SDS011;38518;53.164;5.430;2024-03-22T01:07:33;80.22;;;43.20;;
51618;SDS011;38518;53.164;5.430;2024-03-22T01:09:59;76.38;;;44.83;;
51618;SDS011;38518;53.164;5.430;2024-03-22T01:12:25;60.67;;;30.90;;
51618;SDS011;38518;53.164;5.430;2024-03-22T01:14:50;72.68;;;40.50;;
51618;SDS011;38518;53.164;5.430;2024-03-22T01:17:16;71.85;;;42.95;;
51618;SDS011;38518;53.164;5.430;2024-03-22T01:19:42;78.85;;;44.65;;
51618;SDS011;38518;53.164;5.430;2024-03-22T01:22:08;60.22;;;30.15;;
51618;SDS011;38518;53.164;5.430;2024-03-22T01:24:33;69.68;;;39.22;;
51618;SDS011;38518;53.164;5.430;2024-03-22T01:26:59;75.80;;;42.92;;
51618;SDS011;38518;53.164;5.430;2024-03-22T01:29:25;68.05;;;30.58;;
51618;SDS011;38518;53.164;5.430;2024-03-22T01:31:50;71.82;;;41.42;;
51618;SDS011;38518;53.164;5.430;2024-03-22T01:34:16;59.33;;;30.30;;
51618;SDS011;38518;53.164;5.430;2024-03-22T01:36:42;69.00;;;39.72;;
51618;SDS011;38518;53.164;5.430;2024-03-22T01:39:07;74.38;;;41.15;;
51618;SDS011;38518;53.164;5.430;2024-03-22T01:41:33;80.43;;;42.72;;
51618;SDS011;38518;53.164;5.430;2024-03-22T01:43:59;76.25;;;40.70;;
51618;SDS011;38518;53.164;5.430;2024-03-22T01:46:24;59.47;;;26.52;;
51618;SDS011;38518;53.164;5.430;2024-03-22T01:48:50;71.05;;;37.38;;
51618;SDS011;38518;53.164;5.430;2024-03-22T01:51:17;73.45;;;38.75;;
51618;SDS011;38518;53.164;5.430;2024-03-22T01:53:43;78.95;;;42.22;;
51618;SDS011;38518;53.164;5.430;2024-03-22T01:56:09;75.38;;;40.03;;
51618;SDS011;38518;53.164;5.430;2024-03-22T01:58:36;67.53;;;29.92;;
51618;SDS011;38518;53.164;5.430;2024-03-22T02:01:01;76.93;;;38.88;;
51618;SDS011;38518;53.164;5.430;2024-03-22T02:03:27;78.93;;;41.58;;
51618;SDS011;38518;53.164;5.430;2024-03-22T02:05:53;70.15;;;31.58;;
51618;SDS011;38518;53.164;5.430;2024-03-22T02:08:19;77.53;;;40.78;;
51618;SDS011;38518;53.164;5.430;2024-03-22T02:10:45;77.60;;;39.85;;
51618;SDS011;38518;53.164;5.430;2024-03-22T02:13:11;75.95;;;40.00;;
51618;SDS011;38518;53.164;5.430;2024-03-22T02:15:37;73.78;;;39.65;;
51618;SDS011;38518;53.164;5.430;2024-03-22T02:18:03;55.63;;;25.65;;
51618;SDS011;38518;53.164;5.430;2024-03-22T02:20:29;75.93;;;38.90;;
51618;SDS011;38518;53.164;5.430;2024-03-22T02:22:55;80.70;;;33.70;;
51618;SDS011;38518;53.164;5.430;2024-03-22T02:25:21;86.45;;;41.45;;
51618;SDS011;38518;53.164;5.430;2024-03-22T02:27:47;72.25;;;38.97;;
51618;SDS011;38518;53.164;5.430;2024-03-22T02:30:15;74.10;;;40.35;;
51618;SDS011;38518;53.164;5.430;2024-03-22T02:32:42;75.80;;;34.72;;
51618;SDS011;38518;53.164;5.430;2024-03-22T02:35:08;79.35;;;41.67;;
51618;SDS011;38518;53.164;5.430;2024-03-22T02:37:33;72.60;;;39.95;;
51618;SDS011;38518;53.164;5.430;2024-03-22T02:39:59;74.63;;;39.80;;
51618;SDS011;38518;53.164;5.430;2024-03-22T02:42:25;68.50;;;30.25;;
51618;SDS011;38518;53.164;5.430;2024-03-22T02:44:51;66.80;;;29.10;;
51618;SDS011;38518;53.164;5.430;2024-03-22T02:47:17;79.45;;;40.78;;
51618;SDS011;38518;53.164;5.430;2024-03-22T02:49:43;70.85;;;39.08;;
51618;SDS011;38518;53.164;5.430;2024-03-22T02:52:09;81.45;;;38.35;;
51618;SDS011;38518;53.164;5.430;2024-03-22T02:54:34;74.95;;;36.78;;
51618;SDS011;38518;53.164;5.430;2024-03-22T02:57:00;77.75;;;39.30;;
51618;SDS011;38518;53.164;5.430;2024-03-22T02:59:27;76.13;;;33.03;;
51618;SDS011;38518;53.164;5.430;2024-03-22T03:01:53;78.22;;;40.67;;
51618;SDS011;38518;53.164;5.430;2024-03-22T03:04:19;78.10;;;38.05;;
51618;SDS011;38518;53.164;5.430;2024-03-22T03:06:45;80.13;;;38.83;;
51618;SDS011;38518;53.164;5.430;2024-03-22T03:09:11;77.82;;;37.42;;
51618;SDS011;38518;53.164;5.430;2024-03-22T03:11:40;65.35;;;29.30;;
51618;SDS011;38518;53.164;5.430;2024-03-22T03:14:06;71.80;;;36.13;;
51618;SDS011;38518;53.164;5.430;2024-03-22T03:16:32;73.97;;;36.50;;
51618;SDS011;38518;53.164;5.430;2024-03-22T03:18:58;66.88;;;34.60;;
51618;SDS011;38518;53.164;5.430;2024-03-22T03:21:24;72.53;;;33.90;;
51618;SDS011;38518;53.164;5.430;2024-03-22T03:23:49;65.72;;;32.63;;
51618;SDS011;38518;53.164;5.430;2024-03-22T03:26:15;62.45;;;25.08;;
51618;SDS011;38518;53.164;5.430;2024-03-22T03:28:41;63.80;;;23.90;;
51618;SDS011;38518;53.164;5.430;2024-03-22T03:31:07;60.33;;;27.63;;
51618;SDS011;38518;53.164;5.430;2024-03-22T03:33:32;56.72;;;22.42;;
51618;SDS011;38518;53.164;5.430;2024-03-22T03:35:58;62.42;;;26.70;;
51618;SDS011;38518;53.164;5.430;2024-03-22T03:38:24;54.25;;;25.73;;
51618;SDS011;38518;53.164;5.430;2024-03-22T03:40:49;42.90;;;17.63;;
51618;SDS011;38518;53.164;5.430;2024-03-22T03:43:15;58.95;;;26.95;;
51618;SDS011;38518;53.164;5.430;2024-03-22T03:45:41;62.13;;;25.67;;
51618;SDS011;38518;53.164;5.430;2024-03-22T03:48:07;60.22;;;24.88;;
51618;SDS011;38518;53.164;5.430;2024-03-22T03:50:32;53.90;;;25.02;;
51618;SDS011;38518;53.164;5.430;2024-03-22T03:52:58;53.20;;;24.45;;
51618;SDS011;38518;53.164;5.430;2024-03-22T03:55:24;49.97;;;23.10;;
51618;SDS011;38518;53.164;5.430;2024-03-22T03:57:50;49.60;;;21.75;;
51618;SDS011;38518;53.164;5.430;2024-03-22T04:00:17;42.78;;;19.27;;
51618;SDS011;38518;53.164;5.430;2024-03-22T04:02:46;51.03;;;17.75;;
51618;SDS011;38518;53.164;5.430;2024-03-22T04:05:14;52.42;;;24.02;;
51618;SDS011;38518;53.164;5.430;2024-03-22T04:07:40;48.38;;;18.73;;
51618;SDS011;38518;53.164;5.430;2024-03-22T04:10:07;44.67;;;22.75;;
51618;SDS011;38518;53.164;5.430;2024-03-22T04:12:33;53.95;;;22.90;;
51618;SDS011;38518;53.164;5.430;2024-03-22T04:14:59;53.25;;;23.05;;
51618;SDS011;38518;53.164;5.430;2024-03-22T04:17:25;53.10;;;23.20;;
51618;SDS011;38518;53.164;5.430;2024-03-22T04:19:51;45.03;;;21.27;;
51618;SDS011;38518;53.164;5.430;2024-03-22T04:22:17;36.58;;;15.25;;
51618;SDS011;38518;53.164;5.430;2024-03-22T04:24:43;44.78;;;20.63;;
51618;SDS011;38518;53.164;5.430;2024-03-22T04:27:09;47.63;;;16.40;;
51618;SDS011;38518;53.164;5.430;2024-03-22T04:29:34;47.13;;;20.02;;
51618;SDS011;38518;53.164;5.430;2024-03-22T04:32:00;45.47;;;19.95;;
51618;SDS011;38518;53.164;5.430;2024-03-22T04:34:26;44.88;;;19.08;;
51618;SDS011;38518;53.164;5.430;2024-03-22T04:36:51;46.05;;;15.02;;
51618;SDS011;38518;53.164;5.430;2024-03-22T04:39:19;40.80;;;18.50;;
51618;SDS011;38518;53.164;5.430;2024-03-22T04:41:45;41.08;;;18.73;;
51618;SDS011;38518;53.164;5.430;2024-03-22T04:44:10;39.92;;;17.80;;
51618;SDS011;38518;53.164;5.430;2024-03-22T04:46:36;52.25;;;19.65;;
51618;SDS011;38518;53.164;5.430;2024-03-22T04:49:02;49.50;;;19.23;;
51618;SDS011;38518;53.164;5.430;2024-03-22T04:51:28;37.05;;;14.18;;
51618;SDS011;38518;53.164;5.430;2024-03-22T04:53:53;52.13;;;19.55;;
51618;SDS011;38518;53.164;5.430;2024-03-22T04:56:19;47.35;;;17.83;;
51618;SDS011;38518;53.164;5.430;2024-03-22T04:58:45;51.00;;;21.73;;
51618;SDS011;38518;53.164;5.430;2024-03-22T05:01:10;49.10;;;21.45;;
51618;SDS011;38518;53.164;5.430;2024-03-22T05:03:38;51.65;;;22.60;;
51618;SDS011;38518;53.164;5.430;2024-03-22T05:06:04;51.38;;;23.00;;
51618;SDS011;38518;53.164;5.430;2024-03-22T05:08:31;55.45;;;18.08;;
51618;SDS011;38518;53.164;5.430;2024-03-22T05:10:57;49.28;;;23.73;;
51618;SDS011;38518;53.164;5.430;2024-03-22T05:13:23;49.05;;;23.30;;
51618;SDS011;38518;53.164;5.430;2024-03-22T05:15:49;50.85;;;17.67;;
51618;SDS011;38518;53.164;5.430;2024-03-22T05:18:14;51.90;;;23.08;;
51618;SDS011;38518;53.164;5.430;2024-03-22T05:20:40;45.30;;;22.38;;
51618;SDS011;38518;53.164;5.430;2024-03-22T05:23:06;57.65;;;24.05;;
51618;SDS011;38518;53.164;5.430;2024-03-22T05:25:31;47.63;;;18.05;;
51618;SDS011;38518;53.164;5.430;2024-03-22T05:27:58;47.35;;;22.27;;
51618;SDS011;38518;53.164;5.430;2024-03-22T05:30:23;52.75;;;17.98;;
51618;SDS011;38518;53.164;5.430;2024-03-22T05:32:49;45.08;;;22.88;;
51618;SDS011;38518;53.164;5.430;2024-03-22T05:35:15;49.70;;;21.42;;
51618;SDS011;38518;53.164;5.430;2024-03-22T05:37:41;42.80;;;21.63;;
51618;SDS011;38518;53.164;5.430;2024-03-22T05:40:07;47.60;;;22.85;;
51618;SDS011;38518;53.164;5.430;2024-03-22T05:42:34;41.60;;;21.63;;
51618;SDS011;38518;53.164;5.430;2024-03-22T05:45:00;40.53;;;22.67;;
51618;SDS011;38518;53.164;5.430;2024-03-22T05:47:25;40.85;;;17.88;;
51618;SDS011;38518;53.164;5.430;2024-03-22T05:49:51;45.17;;;22.73;;
51618;SDS011;38518;53.164;5.430;2024-03-22T05:52:17;42.97;;;18.17;;
51618;SDS011;38518;53.164;5.430;2024-03-22T05:54:43;44.03;;;23.73;;
51618;SDS011;38518;53.164;5.430;2024-03-22T05:57:09;47.55;;;22.38;;
51618;SDS011;38518;53.164;5.430;2024-03-22T05:59:36;42.75;;;18.33;;
51618;SDS011;38518;53.164;5.430;2024-03-22T06:02:02;37.30;;;16.35;;
51618;SDS011;38518;53.164;5.430;2024-03-22T06:04:27;51.60;;;21.15;;
51618;SDS011;38518;53.164;5.430;2024-03-22T06:06:53;47.63;;;20.13;;
51618;SDS011;38518;53.164;5.430;2024-03-22T06:09:19;48.55;;;27.10;;
51618;SDS011;38518;53.164;5.430;2024-03-22T06:12:02;50.05;;;20.30;;
51618;SDS011;38518;53.164;5.430;2024-03-22T06:14:31;53.42;;;27.25;;
51618;SDS011;38518;53.164;5.430;2024-03-22T06:16:57;63.45;;;28.50;;
51618;SDS011;38518;53.164;5.430;2024-03-22T06:19:23;63.65;;;28.52;;
51618;SDS011;38518;53.164;5.430;2024-03-22T06:21:49;52.13;;;21.55;;
51618;SDS011;38518;53.164;5.430;2024-03-22T06:24:15;64.50;;;28.33;;
51618;SDS011;38518;53.164;5.430;2024-03-22T06:26:40;57.03;;;23.05;;
51618;SDS011;38518;53.164;5.430;2024-03-22T06:29:06;60.55;;;28.90;;
51618;SDS011;38518;53.164;5.430;2024-03-22T06:31:32;55.60;;;26.25;;
51618;SDS011;38518;53.164;5.430;2024-03-22T06:33:58;73.65;;;31.65;;
51618;SDS011;38518;53.164;5.430;2024-03-22T06:36:36;67.78;;;31.90;;
51618;SDS011;38518;53.164;5.430;2024-03-22T06:39:02;46.10;;;20.27;;
51618;SDS011;38518;53.164;5.430;2024-03-22T06:41:31;73.65;;;33.80;;
51618;SDS011;38518;53.164;5.430;2024-03-22T06:43:57;67.20;;;32.63;;
51618;SDS011;38518;53.164;5.430;2024-03-22T06:46:23;68.35;;;33.03;;
51618;SDS011;38518;53.164;5.430;2024-03-22T06:48:50;48.13;;;21.75;;
51618;SDS011;38518;53.164;5.430;2024-03-22T06:51:17;63.72;;;24.05;;
51618;SDS011;38518;53.164;5.430;2024-03-22T06:53:43;77.97;;;36.25;;
51618;SDS011;38518;53.164;5.430;2024-03-22T06:56:10;75.65;;;35.95;;
51618;SDS011;38518;53.164;5.430;2024-03-22T06:58:37;67.78;;;34.53;;
51618;SDS011;38518;53.164;5.430;2024-03-22T07:01:06;75.68;;;35.83;;
51618;SDS011;38518;53.164;5.430;2024-03-22T07:03:31;75.43;;;36.20;;
51618;SDS011;38518;53.164;5.430;2024-03-22T07:05:57;62.10;;;26.05;;
51618;SDS011;38518;53.164;5.430;2024-03-22T07:08:23;58.35;;;23.13;;
51618;SDS011;38518;53.164;5.430;2024-03-22T07:10:50;48.88;;;23.92;;
51618;SDS011;38518;53.164;5.430;2024-03-22T07:13:16;67.45;;;32.75;;
51618;SDS011;38518;53.164;5.430;2024-03-22T07:15:43;52.05;;;23.40;;
51618;SDS011;38518;53.164;5.430;2024-03-22T07:18:10;56.13;;;30.63;;
51618;SDS011;38518;53.164;5.430;2024-03-22T07:20:35;65.45;;;32.28;;
51618;SDS011;38518;53.164;5.430;2024-03-22T07:23:01;48.25;;;22.70;;
51618;SDS011;38518;53.164;5.430;2024-03-22T07:25:29;61.05;;;30.80;;
51618;SDS011;38518;53.164;5.430;2024-03-22T07:27:55;53.45;;;29.85;;
51618;SDS011;38518;53.164;5.430;2024-03-22T07:30:21;55.92;;;31.08;;
51618;SDS011;38518;53.164;5.430;2024-03-22T07:32:47;58.53;;;29.35;;
51618;SDS011;38518;53.164;5.430;2024-03-22T07:35:13;43.33;;;20.98;;
51618;SDS011;38518;53.164;5.430;2024-03-22T07:37:38;55.88;;;30.50;;
51618;SDS011;38518;53.164;5.430;2024-03-22T07:40:05;51.25;;;22.60;;
51618;SDS011;38518;53.164;5.430;2024-03-22T07:42:31;51.63;;;29.50;;
51618;SDS011;38518;53.164;5.430;2024-03-22T07:44:57;53.97;;;30.55;;
51618;SDS011;38518;53.164;5.430;2024-03-22T07:47:23;46.70;;;21.23;;
51618;SDS011;38518;53.164;5.430;2024-03-22T07:49:48;57.38;;;29.15;;
51618;SDS011;38518;53.164;5.430;2024-03-22T07:52:14;43.63;;;21.27;;
51618;SDS011;38518;53.164;5.430;2024-03-22T07:54:40;45.47;;;21.17;;
51618;SDS011;38518;53.164;5.430;2024-03-22T07:57:05;44.00;;;20.90;;
51618;SDS011;38518;53.164;5.430;2024-03-22T07:59:32;60.63;;;31.55;;
51618;SDS011;38518;53.164;5.430;2024-03-22T08:01:58;59.72;;;31.15;;
51618;SDS011;38518;53.164;5.430;2024-03-22T08:04:23;51.65;;;22.08;;
51618;SDS011;38518;53.164;5.430;2024-03-22T08:06:52;54.65;;;23.63;;
51618;SDS011;38518;53.164;5.430;2024-03-22T08:09:18;63.55;;;33.03;;
51618;SDS011;38518;53.164;5.430;2024-03-22T08:11:44;66.03;;;34.40;;
51618;SDS011;38518;53.164;5.430;2024-03-22T08:14:09;61.22;;;32.75;;
51618;SDS011;38518;53.164;5.430;2024-03-22T08:16:35;49.63;;;23.02;;
51618;SDS011;38518;53.164;5.430;2024-03-22T08:19:01;66.35;;;32.40;;
51618;SDS011;38518;53.164;5.430;2024-03-22T08:21:27;58.25;;;31.38;;
51618;SDS011;38518;53.164;5.430;2024-03-22T08:23:53;53.58;;;23.33;;
51618;SDS011;38518;53.164;5.430;2024-03-22T08:26:18;64.88;;;31.92;;
51618;SDS011;38518;53.164;5.430;2024-03-22T08:28:45;67.95;;;32.33;;
51618;SDS011;38518;53.164;5.430;2024-03-22T08:31:12;61.75;;;32.10;;
51618;SDS011;38518;53.164;5.430;2024-03-22T08:33:38;53.78;;;29.30;;
51618;SDS011;38518;53.164;5.430;2024-03-22T08:36:04;52.33;;;22.63;;
51618;SDS011;38518;53.164;5.430;2024-03-22T08:38:30;58.33;;;30.30;;
51618;SDS011;38518;53.164;5.430;2024-03-22T08:40:56;46.90;;;21.90;;
51618;SDS011;38518;53.164;5.430;2024-03-22T08:43:21;57.92;;;23.08;;
51618;SDS011;38518;53.164;5.430;2024-03-22T08:45:50;55.33;;;28.73;;
51618;SDS011;38518;53.164;5.430;2024-03-22T08:48:17;54.13;;;28.60;;
51618;SDS011;38518;53.164;5.430;2024-03-22T08:50:43;49.08;;;27.02;;
51618;SDS011;38518;53.164;5.430;2024-03-22T08:53:09;35.75;;;16.42;;
51618;SDS011;38518;53.164;5.430;2024-03-22T08:55:35;42.65;;;23.17;;
51618;SDS011;38518;53.164;5.430;2024-03-22T08:58:02;37.85;;;21.60;;
51618;SDS011;38518;53.164;5.430;2024-03-22T09:00:29;35.42;;;15.48;;
51618;SDS011;38518;53.164;5.430;2024-03-22T09:02:54;41.10;;;19.98;;
51618;SDS011;38518;53.164;5.430;2024-03-22T09:05:20;39.47;;;21.08;;
51618;SDS011;38518;53.164;5.430;2024-03-22T09:07:46;41.15;;;21.17;;
51618;SDS011;38518;53.164;5.430;2024-03-22T09:10:13;43.58;;;20.75;;
51618;SDS011;38518;53.164;5.430;2024-03-22T09:12:39;39.38;;;20.05;;
51618;SDS011;38518;53.164;5.430;2024-03-22T09:15:06;26.83;;;14.30;;
51618;SDS011;38518;53.164;5.430;2024-03-22T09:17:32;37.92;;;20.02;;
51618;SDS011;38518;53.164;5.430;2024-03-22T09:19:58;35.50;;;18.80;;
51618;SDS011;38518;53.164;5.430;2024-03-22T09:22:24;26.58;;;14.32;;
51618;SDS011;38518;53.164;5.430;2024-03-22T09:24:50;34.13;;;17.83;;
51618;SDS011;38518;53.164;5.430;2024-03-22T09:27:16;34.90;;;13.68;;
51618;SDS011;38518;53.164;5.430;2024-03-22T09:29:41;38.60;;;19.05;;
51618;SDS011;38518;53.164;5.430;2024-03-22T09:32:08;34.38;;;18.30;;
51618;SDS011;38518;53.164;5.430;2024-03-22T09:34:35;32.13;;;14.30;;
51618;SDS011;38518;53.164;5.430;2024-03-22T09:37:01;37.85;;;18.42;;
51618;SDS011;38518;53.164;5.430;2024-03-22T09:39:27;40.75;;;19.67;;
51618;SDS011;38518;53.164;5.430;2024-03-22T09:41:53;34.90;;;15.25;;
51618;SDS011;38518;53.164;5.430;2024-03-22T09:44:22;35.08;;;17.80;;
51618;SDS011;38518;53.164;5.430;2024-03-22T09:46:50;36.63;;;19.10;;
51618;SDS011;38518;53.164;5.430;2024-03-22T09:49:16;34.60;;;18.52;;
51618;SDS011;38518;53.164;5.430;2024-03-22T09:51:43;32.08;;;18.63;;
51618;SDS011;38518;53.164;5.430;2024-03-22T09:54:09;29.33;;;15.65;;
51618;SDS011;38518;53.164;5.430;2024-03-22T09:56:37;32.75;;;15.98;;
51618;SDS011;38518;53.164;5.430;2024-03-22T09:59:04;25.90;;;10.05;;
51618;SDS011;38518;53.164;5.430;2024-03-22T10:01:32;25.60;;;13.63;;
51618;SDS011;38518;53.164;5.430;2024-03-22T10:03:59;25.98;;;13.15;;
51618;SDS011;38518;53.164;5.430;2024-03-22T10:06:25;19.77;;;9.07;;
51618;SDS011;38518;53.164;5.430;2024-03-22T10:08:51;27.48;;;13.75;;
51618;SDS011;38518;53.164;5.430;2024-03-22T10:11:16;27.70;;;14.13;;
51618;SDS011;38518;53.164;5.430;2024-03-22T10:13:43;26.15;;;13.68;;
51618;SDS011;38518;53.164;5.430;2024-03-22T10:16:10;22.48;;;11.88;;
51618;SDS011;38518;53.164;5.430;2024-03-22T10:18:36;21.77;;;11.25;;
51618;SDS011;38518;53.164;5.430;2024-03-22T10:21:05;17.88;;;10.02;;
51618;SDS011;38518;53.164;5.430;2024-03-22T10:23:31;17.02;;;7.45;;
51618;SDS011;38518;53.164;5.430;2024-03-22T10:25:57;15.43;;;6.47;;
51618;SDS011;38518;53.164;5.430;2024-03-22T10:28:26;15.00;;;6.97;;
51618;SDS011;38518;53.164;5.430;2024-03-22T10:30:52;14.02;;;6.50;;
51618;SDS011;38518;53.164;5.430;2024-03-22T10:33:19;16.00;;;7.70;;
51618;SDS011;38518;53.164;5.430;2024-03-22T10:35:47;14.70;;;7.00;;
51618;SDS011;38518;53.164;5.430;2024-03-22T10:38:17;15.68;;;7.07;;
51618;SDS011;38518;53.164;5.430;2024-03-22T10:40:44;18.63;;;7.68;;
51618;SDS011;38518;53.164;5.430;2024-03-22T10:43:12;16.55;;;7.65;;
51618;SDS011;38518;53.164;5.430;2024-03-22T10:45:41;13.65;;;7.57;;
51618;SDS011;38518;53.164;5.430;2024-03-22T10:48:09;17.35;;;6.90;;
51618;SDS011;38518;53.164;5.430;2024-03-22T10:50:38;15.95;;;7.50;;
51618;SDS011;38518;53.164;5.430;2024-03-22T10:53:06;14.80;;;7.00;;
51618;SDS011;38518;53.164;5.430;2024-03-22T10:55:41;15.20;;;6.55;;
51618;SDS011;38518;53.164;5.430;2024-03-22T10:58:20;13.20;;;6.53;;
51618;SDS011;38518;53.164;5.430;2024-03-22T11:00:47;14.57;;;5.53;;
51618;SDS011;38518;53.164;5.430;2024-03-22T11:03:16;10.77;;;5.60;;
51618;SDS011;38518;53.164;5.430;2024-03-22T11:05:48;10.98;;;5.95;;
51618;SDS011;38518;53.164;5.430;2024-03-22T11:08:29;11.75;;;6.05;;
51618;SDS011;38518;53.164;5.430;2024-03-22T11:11:08;16.80;;;5.85;;
51618;SDS011;38518;53.164;5.430;2024-03-22T11:13:38;10.48;;;5.20;;
51618;SDS011;38518;53.164;5.430;2024-03-22T11:16:04;15.23;;;5.60;;
51618;SDS011;38518;53.164;5.430;2024-03-22T11:18:30;14.90;;;6.90;;
51618;SDS011;38518;53.164;5.430;2024-03-22T11:20:56;14.00;;;6.68;;
51618;SDS011;38518;53.164;5.430;2024-03-22T11:23:22;17.58;;;7.13;;
51618;SDS011;38518;53.164;5.430;2024-03-22T11:25:48;15.20;;;7.00;;
51618;SDS011;38518;53.164;5.430;2024-03-22T11:28:14;15.43;;;7.65;;
51618;SDS011;38518;53.164;5.430;2024-03-22T11:30:40;17.83;;;8.77;;
51618;SDS011;38518;53.164;5.430;2024-03-22T11:33:06;22.05;;;9.30;;
51618;SDS011;38518;53.164;5.430;2024-03-22T11:35:32;19.80;;;9.13;;
51618;SDS011;38518;53.164;5.430;2024-03-22T11:37:59;17.98;;;8.02;;
51618;SDS011;38518;53.164;5.430;2024-03-22T11:40:25;21.48;;;9.95;;
51618;SDS011;38518;53.164;5.430;2024-03-22T11:42:52;20.60;;;9.55;;
51618;SDS011;38518;53.164;5.430;2024-03-22T11:45:19;18.58;;;9.50;;
51618;SDS011;38518;53.164;5.430;2024-03-22T11:47:47;24.20;;;10.52;;
51618;SDS011;38518;53.164;5.430;2024-03-22T11:50:13;18.63;;;9.85;;
51618;SDS011;38518;53.164;5.430;2024-03-22T11:52:40;19.92;;;9.00;;
51618;SDS011;38518;53.164;5.430;2024-03-22T11:55:11;25.42;;;9.77;;
51618;SDS011;38518;53.164;5.430;2024-03-22T11:57:37;20.75;;;9.40;;
51618;SDS011;38518;53.164;5.430;2024-03-22T12:00:03;21.80;;;9.50;;
51618;SDS011;38518;53.164;5.430;2024-03-22T12:02:37;22.95;;;9.55;;
51618;SDS011;38518;53.164;5.430;2024-03-22T12:05:04;22.75;;;8.73;;
51618;SDS011;38518;53.164;5.430;2024-03-22T12:07:30;17.38;;;8.30;;
51618;SDS011;38518;53.164;5.430;2024-03-22T12:09:58;21.08;;;7.85;;
51618;SDS011;38518;53.164;5.430;2024-03-22T12:12:24;25.90;;;8.25;;
51618;SDS011;38518;53.164;5.430;2024-03-22T12:14:49;20.83;;;7.68;;
51618;SDS011;38518;53.164;5.430;2024-03-22T12:17:16;15.35;;;6.55;;
51618;SDS011;38518;53.164;5.430;2024-03-22T12:19:42;15.27;;;6.15;;
51618;SDS011;38518;53.164;5.430;2024-03-22T12:22:11;14.82;;;6.30;;
51618;SDS011;38518;53.164;5.430;2024-03-22T12:24:37;16.58;;;6.18;;
51618;SDS011;38518;53.164;5.430;2024-03-22T12:27:03;18.75;;;5.90;;
51618;SDS011;38518;53.164;5.430;2024-03-22T12:29:32;20.13;;;5.68;;
51618;SDS011;38518;53.164;5.430;2024-03-22T12:31:58;16.58;;;5.28;;
51618;SDS011;38518;53.164;5.430;2024-03-22T12:34:27;13.57;;;4.45;;
51618;SDS011;38518;53.164;5.430;2024-03-22T12:36:54;16.65;;;5.63;;
51618;SDS011;38518;53.164;5.430;2024-03-22T12:39:20;17.85;;;5.30;;
51618;SDS011;38518;53.164;5.430;2024-03-22T12:41:46;12.90;;;4.75;;
51618;SDS011;38518;53.164;5.430;2024-03-22T12:44:12;22.67;;;6.10;;
51618;SDS011;38518;53.164;5.430;2024-03-22T12:46:38;19.42;;;6.20;;
51618;SDS011;38518;53.164;5.430;2024-03-22T12:49:03;21.67;;;6.38;;
51618;SDS011;38518;53.164;5.430;2024-03-22T12:51:29;19.02;;;6.13;;
51618;SDS011;38518;53.164;5.430;2024-03-22T12:53:55;20.88;;;6.97;;
51618;SDS011;38518;53.164;5.430;2024-03-22T12:56:21;17.92;;;6.10;;
51618;SDS011;38518;53.164;5.430;2024-03-22T12:58:47;20.85;;;6.82;;
51618;SDS011;38518;53.164;5.430;2024-03-22T13:01:13;20.58;;;6.15;;
51618;SDS011;38518;53.164;5.430;2024-03-22T13:03:39;23.40;;;7.38;;
51618;SDS011;38518;53.164;5.430;2024-03-22T13:06:05;23.30;;;6.78;;
51618;SDS011;38518;53.164;5.430;2024-03-22T13:08:33;21.20;;;6.97;;
51618;SDS011;38518;53.164;5.430;2024-03-22T13:10:59;16.20;;;5.40;;
51618;SDS011;38518;53.164;5.430;2024-03-22T13:13:25;20.15;;;6.32;;
51618;SDS011;38518;53.164;5.430;2024-03-22T13:15:51;25.38;;;6.82;;
51618;SDS011;38518;53.164;5.430;2024-03-22T13:18:17;30.10;;;8.05;;
51618;SDS011;38518;53.164;5.430;2024-03-22T13:20:43;23.80;;;7.78;;
51618;SDS011;38518;53.164;5.430;2024-03-22T13:23:09;23.52;;;6.57;;
51618;SDS011;38518;53.164;5.430;2024-03-22T13:25:37;19.23;;;6.57;;
51618;SDS011;38518;53.164;5.430;2024-03-22T13:28:03;19.30;;;6.60;;
51618;SDS011;38518;53.164;5.430;2024-03-22T13:30:30;19.30;;;6.68;;
51618;SDS011;38518;53.164;5.430;2024-03-22T13:32:57;22.45;;;6.88;;
51618;SDS011;38518;53.164;5.430;2024-03-22T13:35:24;26.65;;;6.88;;
51618;SDS011;38518;53.164;5.430;2024-03-22T13:37:50;26.08;;;7.75;;
51618;SDS011;38518;53.164;5.430;2024-03-22T13:40:16;23.48;;;6.97;;
51618;SDS011;38518;53.164;5.430;2024-03-22T13:42:41;23.08;;;6.50;;
51618;SDS011;38518;53.164;5.430;2024-03-22T13:45:07;26.30;;;6.72;;
51618;SDS011;38518;53.164;5.430;2024-03-22T13:47:33;24.75;;;6.63;;
51618;SDS011;38518;53.164;5.430;2024-03-22T13:50:02;26.85;;;7.10;;
51618;SDS011;38518;53.164;5.430;2024-03-22T13:52:29;20.98;;;6.18;;
51618;SDS011;38518;53.164;5.430;2024-03-22T13:54:55;26.65;;;6.53;;
51618;SDS011;38518;53.164;5.430;2024-03-22T13:57:21;24.25;;;6.40;;
51618;SDS011;38518;53.164;5.430;2024-03-22T13:59:49;23.67;;;6.75;;
51618;SDS011;38518;53.164;5.430;2024-03-22T14:02:15;21.70;;;6.50;;
51618;SDS011;38518;53.164;5.430;2024-03-22T14:04:41;22.10;;;6.15;;
51618;SDS011;38518;53.164;5.430;2024-03-22T14:07:06;20.73;;;7.18;;
51618;SDS011;38518;53.164;5.430;2024-03-22T14:09:32;20.33;;;6.45;;
51618;SDS011;38518;53.164;5.430;2024-03-22T14:11:59;21.60;;;6.38;;
51618;SDS011;38518;53.164;5.430;2024-03-22T14:14:25;25.92;;;7.20;;
51618;SDS011;38518;53.164;5.430;2024-03-22T14:16:54;19.20;;;5.70;;
51618;SDS011;38518;53.164;5.430;2024-03-22T14:19:20;19.42;;;5.90;;
51618;SDS011;38518;53.164;5.430;2024-03-22T14:21:46;23.42;;;6.45;;